sensor_id;sensor_type;location;lat;lon;timestamp;pressure;altitude;pressure_sealevel;temperature;humidity
76853;BME280;65825;52.232;10.566;2024-01-27T00:02:16;102133.66;;;6.61;69.31
76853;BME280;65825;52.232;10.566;2024-01-27T00:04:41;102144.13;;;6.57;69.47
76853;BME280;65825;52.232;10.566;2024-01-27T00:07:06;102128.47;;;6.69;68.56
76853;BME280;65825;52.232;10.566;2024-01-27T00:09:32;102132.78;;;6.62;68.45
76853;BME280;65825;52.232;10.566;2024-01-27T00:11:57;102139.81;;;6.62;68.15
76853;BME280;65825;52.232;10.566;2024-01-27T00:14:22;102129.28;;;6.60;68.35
76853;BME280;65825;52.232;10.566;2024-01-27T00:16:48;102144.19;;;6.63;68.35
76853;BME280;65825;52.232;10.566;2024-01-27T00:19:13;102143.31;;;6.65;68.43
76853;BME280;65825;52.232;10.566;2024-01-27T00:21:38;102143.22;;;6.55;68.17
76853;BME280;65825;52.232;10.566;2024-01-27T00:24:04;102138.16;;;6.77;68.12
76853;BME280;65825;52.232;10.566;2024-01-27T00:26:29;102148.72;;;6.89;67.39
76853;BME280;65825;52.232;10.566;2024-01-27T00:28:54;102152.16;;;6.78;67.80
76853;BME280;65825;52.232;10.566;2024-01-27T00:31:19;102144.22;;;6.72;68.09
76853;BME280;65825;52.232;10.566;2024-01-27T00:33:45;102152.97;;;6.68;67.73
76853;BME280;65825;52.232;10.566;2024-01-27T00:36:10;102146.03;;;6.79;67.37
76853;BME280;65825;52.232;10.566;2024-01-27T00:38:35;102150.44;;;6.81;67.52
76853;BME280;65825;52.232;10.566;2024-01-27T00:41:01;102151.22;;;6.74;67.47
76853;BME280;65825;52.232;10.566;2024-01-27T00:43:26;102144.28;;;6.76;67.61
76853;BME280;65825;52.232;10.566;2024-01-27T00:45:51;102153.13;;;6.90;67.43
76853;BME280;65825;52.232;10.566;2024-01-27T00:48:16;102156.56;;;6.83;67.63
76853;BME280;65825;52.232;10.566;2024-01-27T00:50:42;102160.94;;;6.81;67.90
76853;BME280;65825;52.232;10.566;2024-01-27T00:53:07;102158.25;;;6.77;68.20
76853;BME280;65825;52.232;10.566;2024-01-27T00:55:32;102174.00;;;6.74;68.35
76853;BME280;65825;52.232;10.566;2024-01-27T00:57:57;102163.50;;;6.77;68.54
76853;BME280;65825;52.232;10.566;2024-01-27T01:00:23;102167.06;;;6.80;68.55
76853;BME280;65825;52.232;10.566;2024-01-27T01:02:48;102159.03;;;6.62;69.00
76853;BME280;65825;52.232;10.566;2024-01-27T01:05:13;102168.66;;;6.65;68.94
76853;BME280;65825;52.232;10.566;2024-01-27T01:07:39;102175.63;;;6.61;69.05
76853;BME280;65825;52.232;10.566;2024-01-27T01:10:04;102173.94;;;6.69;69.69
76853;BME280;65825;52.232;10.566;2024-01-27T01:12:30;102167.84;;;6.73;69.16
76853;BME280;65825;52.232;10.566;2024-01-27T01:14:55;102162.53;;;6.66;69.43
76853;BME280;65825;52.232;10.566;2024-01-27T01:17:21;102164.31;;;6.68;69.20
76853;BME280;65825;52.232;10.566;2024-01-27T01:19:46;102154.56;;;6.51;69.69
76853;BME280;65825;52.232;10.566;2024-01-27T01:22:12;102165.97;;;6.54;69.69
76853;BME280;65825;52.232;10.566;2024-01-27T01:24:37;102161.53;;;6.49;70.12
76853;BME280;65825;52.232;10.566;2024-01-27T01:27:03;102162.25;;;6.31;70.66
76853;BME280;65825;52.232;10.566;2024-01-27T01:29:28;102164.91;;;6.36;70.81
76853;BME280;65825;52.232;10.566;2024-01-27T01:31:53;102163.13;;;6.33;70.90
76853;BME280;65825;52.232;10.566;2024-01-27T01:34:18;102164.06;;;6.35;70.88
76853;BME280;65825;52.232;10.566;2024-01-27T01:36:44;102155.31;;;6.36;70.97
76853;BME280;65825;52.232;10.566;2024-01-27T01:39:10;102165.72;;;6.27;71.33
76853;BME280;65825;52.232;10.566;2024-01-27T01:41:36;102158.72;;;6.26;71.50
76853;BME280;65825;52.232;10.566;2024-01-27T01:44:01;102167.50;;;6.28;71.12
76853;BME280;65825;52.232;10.566;2024-01-27T01:46:26;102161.41;;;6.34;71.00
76853;BME280;65825;52.232;10.566;2024-01-27T01:48:52;102172.78;;;6.34;71.58
76853;BME280;65825;52.232;10.566;2024-01-27T01:51:18;102183.97;;;6.17;72.04
76853;BME280;65825;52.232;10.566;2024-01-27T01:53:45;102192.78;;;6.25;71.73
76853;BME280;65825;52.232;10.566;2024-01-27T01:56:14;102189.22;;;6.20;72.08
76853;BME280;65825;52.232;10.566;2024-01-27T01:58:39;102196.34;;;6.28;72.10
76853;BME280;65825;52.232;10.566;2024-01-27T02:01:04;102198.06;;;6.26;72.67
76853;BME280;65825;52.232;10.566;2024-01-27T02:03:30;102198.88;;;6.22;72.72
76853;BME280;65825;52.232;10.566;2024-01-27T02:05:55;102203.31;;;6.28;72.85
76853;BME280;65825;52.232;10.566;2024-01-27T02:08:21;102212.13;;;6.36;72.83
76853;BME280;65825;52.232;10.566;2024-01-27T02:10:46;102214.09;;;6.56;72.00
76853;BME280;65825;52.232;10.566;2024-01-27T02:13:16;102203.59;;;6.61;71.92
76853;BME280;65825;52.232;10.566;2024-01-27T02:15:45;102211.50;;;6.62;71.93
76853;BME280;65825;52.232;10.566;2024-01-27T02:18:10;102216.69;;;6.56;71.97
76853;BME280;65825;52.232;10.566;2024-01-27T02:20:35;102229.72;;;6.46;72.68
76853;BME280;65825;52.232;10.566;2024-01-27T02:23:02;102229.00;;;6.63;72.06
76853;BME280;65825;52.232;10.566;2024-01-27T02:25:29;102235.16;;;6.67;72.02
76853;BME280;65825;52.232;10.566;2024-01-27T02:27:55;102239.50;;;6.62;72.52
76853;BME280;65825;52.232;10.566;2024-01-27T02:30:20;102252.75;;;6.75;72.18
76853;BME280;65825;52.232;10.566;2024-01-27T02:32:45;102242.19;;;6.68;73.21
76853;BME280;65825;52.232;10.566;2024-01-27T02:35:10;102249.09;;;6.61;73.28
76853;BME280;65825;52.232;10.566;2024-01-27T02:37:35;102263.94;;;6.58;73.20
76853;BME280;65825;52.232;10.566;2024-01-27T02:40:01;102261.31;;;6.58;73.69
76853;BME280;65825;52.232;10.566;2024-01-27T02:42:26;102267.44;;;6.58;73.54
76853;BME280;65825;52.232;10.566;2024-01-27T02:44:51;102270.06;;;6.60;73.85
76853;BME280;65825;52.232;10.566;2024-01-27T02:47:16;102273.56;;;6.57;74.04
76853;BME280;65825;52.232;10.566;2024-01-27T02:49:42;102255.28;;;6.68;73.84
76853;BME280;65825;52.232;10.566;2024-01-27T02:52:07;102249.03;;;6.54;73.62
76853;BME280;65825;52.232;10.566;2024-01-27T02:54:34;102266.47;;;6.49;73.54
76853;BME280;65825;52.232;10.566;2024-01-27T02:56:59;102276.22;;;6.63;73.28
76853;BME280;65825;52.232;10.566;2024-01-27T02:59:24;102277.94;;;6.58;73.40
76853;BME280;65825;52.232;10.566;2024-01-27T03:01:49;102283.09;;;6.49;73.62
76853;BME280;65825;52.232;10.566;2024-01-27T03:04:15;102273.66;;;6.68;73.28
76853;BME280;65825;52.232;10.566;2024-01-27T03:06:40;102287.41;;;6.46;74.05
76853;BME280;65825;52.232;10.566;2024-01-27T03:09:05;102287.53;;;6.55;73.38
76853;BME280;65825;52.232;10.566;2024-01-27T03:11:30;102279.84;;;6.73;72.92
76853;BME280;65825;52.232;10.566;2024-01-27T03:13:56;102288.44;;;6.57;73.63
76853;BME280;65825;52.232;10.566;2024-01-27T03:16:21;102288.38;;;6.54;73.54
76853;BME280;65825;52.232;10.566;2024-01-27T03:18:46;102288.56;;;6.70;73.12
76853;BME280;65825;52.232;10.566;2024-01-27T03:21:12;102292.03;;;6.68;72.99
76853;BME280;65825;52.232;10.566;2024-01-27T03:23:37;102256.78;;;6.40;72.65
76853;BME280;65825;52.232;10.566;2024-01-27T03:26:03;102290.22;;;6.59;73.44
76853;BME280;65825;52.232;10.566;2024-01-27T03:28:29;102297.22;;;6.62;73.28
76853;BME280;65825;52.232;10.566;2024-01-27T03:30:54;102297.22;;;6.60;73.15
76853;BME280;65825;52.232;10.566;2024-01-27T03:33:19;102296.38;;;6.67;72.94
76853;BME280;65825;52.232;10.566;2024-01-27T03:35:45;102301.59;;;6.63;72.93
76853;BME280;65825;52.232;10.566;2024-01-27T03:38:10;102296.31;;;6.57;72.75
76853;BME280;65825;52.232;10.566;2024-01-27T03:40:35;102299.69;;;6.47;73.27
76853;BME280;65825;52.232;10.566;2024-01-27T03:43:00;102304.03;;;6.46;73.14
76853;BME280;65825;52.232;10.566;2024-01-27T03:45:26;102312.97;;;6.62;72.72
76853;BME280;65825;52.232;10.566;2024-01-27T03:47:51;102326.13;;;6.69;72.34
76853;BME280;65825;52.232;10.566;2024-01-27T03:50:16;102330.38;;;6.55;72.89
76853;BME280;65825;52.232;10.566;2024-01-27T03:52:42;102327.91;;;6.72;72.04
76853;BME280;65825;52.232;10.566;2024-01-27T03:55:07;102322.72;;;6.76;72.12
76853;BME280;65825;52.232;10.566;2024-01-27T03:57:32;102330.47;;;6.63;72.23
76853;BME280;65825;52.232;10.566;2024-01-27T03:59:58;102320.75;;;6.53;72.45
76853;BME280;65825;52.232;10.566;2024-01-27T04:02:23;102325.16;;;6.58;72.38
76853;BME280;65825;52.232;10.566;2024-01-27T04:04:48;102327.38;;;6.22;73.11
76853;BME280;65825;52.232;10.566;2024-01-27T04:07:14;102338.72;;;6.21;73.71
76853;BME280;65825;52.232;10.566;2024-01-27T04:09:39;102330.75;;;6.14;73.71
76853;BME280;65825;52.232;10.566;2024-01-27T04:12:04;102315.56;;;5.89;74.49
76853;BME280;65825;52.232;10.566;2024-01-27T04:14:30;102323.38;;;5.84;74.52
76853;BME280;65825;52.232;10.566;2024-01-27T04:16:55;102329.63;;;5.92;74.66
76853;BME280;65825;52.232;10.566;2024-01-27T04:19:20;102328.66;;;5.86;74.72
76853;BME280;65825;52.232;10.566;2024-01-27T04:21:45;102332.75;;;5.70;75.34
76853;BME280;65825;52.232;10.566;2024-01-27T04:24:11;102346.09;;;5.85;75.14
76853;BME280;65825;52.232;10.566;2024-01-27T04:26:36;102327.53;;;5.72;75.77
76853;BME280;65825;52.232;10.566;2024-01-27T04:29:01;102339.09;;;5.83;74.52
76853;BME280;65825;52.232;10.566;2024-01-27T04:31:26;102342.47;;;5.79;75.14
76853;BME280;65825;52.232;10.566;2024-01-27T04:33:52;102333.59;;;5.68;75.31
76853;BME280;65825;52.232;10.566;2024-01-27T04:36:30;102329.19;;;5.64;75.68
76853;BME280;65825;52.232;10.566;2024-01-27T04:38:55;102334.28;;;5.55;75.79
76853;BME280;65825;52.232;10.566;2024-01-27T04:41:20;102323.75;;;5.52;76.20
76853;BME280;65825;52.232;10.566;2024-01-27T04:43:46;102322.94;;;5.56;76.12
76853;BME280;65825;52.232;10.566;2024-01-27T04:46:11;102324.63;;;5.51;76.54
76853;BME280;65825;52.232;10.566;2024-01-27T04:48:36;102324.59;;;5.49;76.72
76853;BME280;65825;52.232;10.566;2024-01-27T04:51:01;102334.50;;;5.70;76.15
76853;BME280;65825;52.232;10.566;2024-01-27T04:53:26;102319.06;;;5.30;76.97
76853;BME280;65825;52.232;10.566;2024-01-27T04:55:52;102342.13;;;5.53;76.42
76853;BME280;65825;52.232;10.566;2024-01-27T04:58:17;102344.69;;;5.50;76.59
76853;BME280;65825;52.232;10.566;2024-01-27T05:00:42;102342.91;;;5.46;77.17
76853;BME280;65825;52.232;10.566;2024-01-27T05:03:07;102342.16;;;5.58;76.24
76853;BME280;65825;52.232;10.566;2024-01-27T05:05:40;102355.34;;;5.62;75.95
76853;BME280;65825;52.232;10.566;2024-01-27T05:08:06;102361.09;;;5.39;76.73
76853;BME280;65825;52.232;10.566;2024-01-27T05:10:31;102363.84;;;5.46;76.74
76853;BME280;65825;52.232;10.566;2024-01-27T05:12:56;102366.38;;;5.40;76.43
76853;BME280;65825;52.232;10.566;2024-01-27T05:15:21;102371.81;;;5.54;76.03
76853;BME280;65825;52.232;10.566;2024-01-27T05:17:47;102375.16;;;5.45;76.20
76853;BME280;65825;52.232;10.566;2024-01-27T05:20:12;102376.09;;;5.49;76.68
76853;BME280;65825;52.232;10.566;2024-01-27T05:22:37;102371.81;;;5.54;75.96
76853;BME280;65825;52.232;10.566;2024-01-27T05:25:03;102370.00;;;5.50;75.87
76853;BME280;65825;52.232;10.566;2024-01-27T05:27:29;102383.75;;;5.37;76.29
76853;BME280;65825;52.232;10.566;2024-01-27T05:29:55;102383.00;;;5.44;76.55
76853;BME280;65825;52.232;10.566;2024-01-27T05:32:20;102377.72;;;5.41;76.47
76853;BME280;65825;52.232;10.566;2024-01-27T05:34:45;102371.59;;;5.40;75.85
76853;BME280;65825;52.232;10.566;2024-01-27T05:37:10;102379.38;;;5.36;75.99
76853;BME280;65825;52.232;10.566;2024-01-27T05:39:36;102390.59;;;5.29;77.00
76853;BME280;65825;52.232;10.566;2024-01-27T05:42:01;102376.78;;;5.37;76.79
76853;BME280;65825;52.232;10.566;2024-01-27T05:44:26;102394.47;;;5.52;76.42
76853;BME280;65825;52.232;10.566;2024-01-27T05:46:51;102395.53;;;5.64;75.54
76853;BME280;65825;52.232;10.566;2024-01-27T05:49:17;102395.50;;;5.63;75.74
76853;BME280;65825;52.232;10.566;2024-01-27T05:51:42;102408.97;;;5.30;76.46
76853;BME280;65825;52.232;10.566;2024-01-27T05:54:08;102409.19;;;5.44;75.97
76853;BME280;65825;52.232;10.566;2024-01-27T05:56:34;102407.25;;;5.32;76.47
76853;BME280;65825;52.232;10.566;2024-01-27T05:59:01;102405.56;;;5.36;76.88
76853;BME280;65825;52.232;10.566;2024-01-27T06:01:26;102405.38;;;5.27;76.58
76853;BME280;65825;52.232;10.566;2024-01-27T06:03:52;102404.38;;;5.17;76.42
76853;BME280;65825;52.232;10.566;2024-01-27T06:06:17;102408.81;;;5.21;76.12
76853;BME280;65825;52.232;10.566;2024-01-27T06:08:42;102406.56;;;5.44;75.41
76853;BME280;65825;52.232;10.566;2024-01-27T06:11:07;102408.19;;;5.36;76.31
76853;BME280;65825;52.232;10.566;2024-01-27T06:13:33;102411.97;;;5.04;77.09
76853;BME280;65825;52.232;10.566;2024-01-27T06:15:59;102407.09;;;5.23;76.42
76853;BME280;65825;52.232;10.566;2024-01-27T06:18:24;102416.69;;;5.24;75.96
76853;BME280;65825;52.232;10.566;2024-01-27T06:20:50;102407.84;;;5.16;76.13
76853;BME280;65825;52.232;10.566;2024-01-27T06:23:15;102412.16;;;5.14;76.80
76853;BME280;65825;52.232;10.566;2024-01-27T06:25:40;102420.22;;;5.25;75.80
76853;BME280;65825;52.232;10.566;2024-01-27T06:28:05;102417.56;;;5.23;76.21
76853;BME280;65825;52.232;10.566;2024-01-27T06:30:31;102421.63;;;5.06;76.02
76853;BME280;65825;52.232;10.566;2024-01-27T06:32:56;102420.59;;;4.98;76.73
76853;BME280;65825;52.232;10.566;2024-01-27T06:35:21;102418.13;;;5.07;76.53
76853;BME280;65825;52.232;10.566;2024-01-27T06:37:47;102415.53;;;5.07;76.23
76853;BME280;65825;52.232;10.566;2024-01-27T06:40:12;102427.75;;;5.07;76.37
76853;BME280;65825;52.232;10.566;2024-01-27T06:42:37;102426.88;;;5.08;76.27
76853;BME280;65825;52.232;10.566;2024-01-27T06:45:03;102419.81;;;5.04;76.49
76853;BME280;65825;52.232;10.566;2024-01-27T06:47:29;102426.88;;;5.08;76.06
76853;BME280;65825;52.232;10.566;2024-01-27T06:49:54;102429.47;;;5.06;76.37
76853;BME280;65825;52.232;10.566;2024-01-27T06:52:19;102428.50;;;5.01;76.15
76853;BME280;65825;52.232;10.566;2024-01-27T06:54:45;102435.50;;;5.02;75.93
76853;BME280;65825;52.232;10.566;2024-01-27T06:57:20;102440.69;;;5.01;76.83
76853;BME280;65825;52.232;10.566;2024-01-27T06:59:47;102447.91;;;5.12;76.26
76853;BME280;65825;52.232;10.566;2024-01-27T07:02:17;102429.28;;;4.97;76.16
76853;BME280;65825;52.232;10.566;2024-01-27T07:04:42;102429.13;;;4.87;76.62
76853;BME280;65825;52.232;10.566;2024-01-27T07:07:07;102449.25;;;4.92;76.92
76853;BME280;65825;52.232;10.566;2024-01-27T07:09:32;102458.13;;;4.99;76.75
76853;BME280;65825;52.232;10.566;2024-01-27T07:11:58;102448.53;;;5.01;76.12
76853;BME280;65825;52.232;10.566;2024-01-27T07:14:23;102451.38;;;5.11;75.40
76853;BME280;65825;52.232;10.566;2024-01-27T07:16:48;102456.75;;;5.19;74.88
76853;BME280;65825;52.232;10.566;2024-01-27T07:19:13;102462.81;;;5.16;74.72
76853;BME280;65825;52.232;10.566;2024-01-27T07:21:41;102465.22;;;5.06;75.64
76853;BME280;65825;52.232;10.566;2024-01-27T07:24:06;102460.28;;;5.21;74.95
76853;BME280;65825;52.232;10.566;2024-01-27T07:26:31;102463.81;;;5.23;74.46
76853;BME280;65825;52.232;10.566;2024-01-27T07:28:57;102471.66;;;5.24;74.26
76853;BME280;65825;52.232;10.566;2024-01-27T07:31:22;102469.88;;;5.20;74.64
76853;BME280;65825;52.232;10.566;2024-01-27T07:33:49;102479.66;;;5.32;74.20
76853;BME280;65825;52.232;10.566;2024-01-27T07:36:14;102483.13;;;5.29;74.08
76853;BME280;65825;52.232;10.566;2024-01-27T07:38:39;102489.38;;;5.37;74.58
76853;BME280;65825;52.232;10.566;2024-01-27T07:41:05;102496.34;;;5.37;73.61
76853;BME280;65825;52.232;10.566;2024-01-27T07:43:30;102491.72;;;5.22;73.69
76853;BME280;65825;52.232;10.566;2024-01-27T07:45:55;102493.84;;;5.43;74.09
76853;BME280;65825;52.232;10.566;2024-01-27T07:48:21;102478.69;;;5.25;74.20
76853;BME280;65825;52.232;10.566;2024-01-27T07:50:46;102486.06;;;5.47;73.67
76853;BME280;65825;52.232;10.566;2024-01-27T07:53:14;102490.22;;;5.35;73.65
76853;BME280;65825;52.232;10.566;2024-01-27T07:55:39;102490.41;;;5.47;74.21
76853;BME280;65825;52.232;10.566;2024-01-27T07:58:04;102493.06;;;5.48;73.43
76853;BME280;65825;52.232;10.566;2024-01-27T08:00:31;102501.91;;;5.53;73.37
76853;BME280;65825;52.232;10.566;2024-01-27T08:02:56;102504.00;;;5.75;72.37
76853;BME280;65825;52.232;10.566;2024-01-27T08:05:21;102507.66;;;5.82;72.40
76853;BME280;65825;52.232;10.566;2024-01-27T08:07:46;102509.19;;;5.71;71.98
76853;BME280;65825;52.232;10.566;2024-01-27T08:10:12;102496.97;;;5.73;72.33
76853;BME280;65825;52.232;10.566;2024-01-27T08:12:37;102501.38;;;5.74;72.16
76853;BME280;65825;52.232;10.566;2024-01-27T08:15:03;102502.56;;;5.89;71.84
76853;BME280;65825;52.232;10.566;2024-01-27T08:17:29;102509.66;;;5.95;71.21
76853;BME280;65825;52.232;10.566;2024-01-27T08:19:54;102503.59;;;6.00;71.55
76853;BME280;65825;52.232;10.566;2024-01-27T08:22:19;102518.66;;;6.15;71.13
76853;BME280;65825;52.232;10.566;2024-01-27T08:24:44;102509.03;;;6.11;71.05
76853;BME280;65825;52.232;10.566;2024-01-27T08:27:10;102515.38;;;6.28;70.23
76853;BME280;65825;52.232;10.566;2024-01-27T08:29:35;102514.03;;;6.55;69.48
76853;BME280;65825;52.232;10.566;2024-01-27T08:32:00;102519.41;;;6.63;69.28
76853;BME280;65825;52.232;10.566;2024-01-27T08:34:26;102515.94;;;6.68;69.41
76853;BME280;65825;52.232;10.566;2024-01-27T08:36:51;102522.88;;;6.62;69.86
76853;BME280;65825;52.232;10.566;2024-01-27T08:39:16;102523.94;;;6.76;68.66
76853;BME280;65825;52.232;10.566;2024-01-27T08:41:41;102530.41;;;7.03;67.59
76853;BME280;65825;52.232;10.566;2024-01-27T08:44:07;102512.03;;;7.03;67.78
76853;BME280;65825;52.232;10.566;2024-01-27T08:46:32;102530.53;;;7.12;67.29
76853;BME280;65825;52.232;10.566;2024-01-27T08:48:57;102529.16;;;7.46;66.78
76853;BME280;65825;52.232;10.566;2024-01-27T08:51:22;102533.38;;;7.32;66.37
76853;BME280;65825;52.232;10.566;2024-01-27T08:53:48;102536.56;;;7.07;67.39
76853;BME280;65825;52.232;10.566;2024-01-27T08:56:16;102530.63;;;7.23;66.46
76853;BME280;65825;52.232;10.566;2024-01-27T08:58:43;102521.13;;;7.32;65.95
76853;BME280;65825;52.232;10.566;2024-01-27T09:01:09;102539.81;;;7.62;65.65
76853;BME280;65825;52.232;10.566;2024-01-27T09:03:35;102542.50;;;7.70;65.97
76853;BME280;65825;52.232;10.566;2024-01-27T09:06:00;102539.00;;;7.68;65.63
76853;BME280;65825;52.232;10.566;2024-01-27T09:08:26;102539.16;;;7.84;65.17
76853;BME280;65825;52.232;10.566;2024-01-27T09:10:51;102537.38;;;7.82;65.09
76853;BME280;65825;52.232;10.566;2024-01-27T09:13:16;102529.50;;;7.83;64.57
76853;BME280;65825;52.232;10.566;2024-01-27T09:15:42;102532.44;;;8.18;64.63
76853;BME280;65825;52.232;10.566;2024-01-27T09:18:07;102545.72;;;8.34;63.59
76853;BME280;65825;52.232;10.566;2024-01-27T09:20:32;102532.88;;;8.87;62.19
76853;BME280;65825;52.232;10.566;2024-01-27T09:22:57;102553.03;;;8.77;62.00
76853;BME280;65825;52.232;10.566;2024-01-27T09:25:23;102548.44;;;8.46;62.79
76853;BME280;65825;52.232;10.566;2024-01-27T09:27:49;102554.78;;;8.78;62.15
76853;BME280;65825;52.232;10.566;2024-01-27T09:30:15;102551.19;;;8.61;62.20
76853;BME280;65825;52.232;10.566;2024-01-27T09:32:40;102553.97;;;8.90;60.90
76853;BME280;65825;52.232;10.566;2024-01-27T09:35:05;102555.69;;;8.83;61.30
76853;BME280;65825;52.232;10.566;2024-01-27T09:37:31;102553.00;;;8.79;61.24
76853;BME280;65825;52.232;10.566;2024-01-27T09:39:57;102543.44;;;8.99;61.23
76853;BME280;65825;52.232;10.566;2024-01-27T09:42:22;102563.72;;;9.16;59.73
76853;BME280;65825;52.232;10.566;2024-01-27T09:44:49;102564.56;;;9.08;60.53
76853;BME280;65825;52.232;10.566;2024-01-27T09:47:15;102577.97;;;9.86;59.00
76853;BME280;65825;52.232;10.566;2024-01-27T09:49:42;102573.50;;;9.43;59.83
76853;BME280;65825;52.232;10.566;2024-01-27T09:52:07;102575.25;;;9.56;59.57
76853;BME280;65825;52.232;10.566;2024-01-27T09:54:33;102578.78;;;9.56;59.58
76853;BME280;65825;52.232;10.566;2024-01-27T09:56:59;102573.56;;;9.89;58.33
76853;BME280;65825;52.232;10.566;2024-01-27T09:59:25;102577.94;;;9.59;58.89
76853;BME280;65825;52.232;10.566;2024-01-27T10:01:52;102582.41;;;10.09;57.46
76853;BME280;65825;52.232;10.566;2024-01-27T10:04:19;102591.22;;;10.10;57.93
76853;BME280;65825;52.232;10.566;2024-01-27T10:06:46;102585.94;;;10.43;57.35
76853;BME280;65825;52.232;10.566;2024-01-27T10:09:13;102587.63;;;10.72;56.60
76853;BME280;65825;52.232;10.566;2024-01-27T10:11:39;102584.13;;;10.73;55.98
76853;BME280;65825;52.232;10.566;2024-01-27T10:14:07;102592.94;;;10.51;56.40
76853;BME280;65825;52.232;10.566;2024-01-27T10:16:45;102592.09;;;10.51;55.99
76853;BME280;65825;52.232;10.566;2024-01-27T10:19:15;102597.38;;;10.40;55.93
76853;BME280;65825;52.232;10.566;2024-01-27T10:21:42;102598.25;;;10.50;56.60
76853;BME280;65825;52.232;10.566;2024-01-27T10:24:07;102590.34;;;10.50;56.97
76853;BME280;65825;52.232;10.566;2024-01-27T10:26:33;102583.25;;;10.71;55.95
76853;BME280;65825;52.232;10.566;2024-01-27T10:29:00;102586.75;;;10.78;55.31
76853;BME280;65825;52.232;10.566;2024-01-27T10:31:30;102587.59;;;10.86;55.29
76853;BME280;65825;52.232;10.566;2024-01-27T10:33:57;102581.34;;;11.15;54.83
76853;BME280;65825;52.232;10.566;2024-01-27T10:36:23;102581.28;;;11.27;54.36
76853;BME280;65825;52.232;10.566;2024-01-27T10:38:48;102581.25;;;11.32;53.71
76853;BME280;65825;52.232;10.566;2024-01-27T10:41:21;102579.06;;;12.07;52.78
76853;BME280;65825;52.232;10.566;2024-01-27T10:43:49;102574.66;;;12.09;52.57
76853;BME280;65825;52.232;10.566;2024-01-27T10:46:15;102589.47;;;12.31;51.03
76853;BME280;65825;52.232;10.566;2024-01-27T10:48:45;102589.09;;;11.56;53.04
76853;BME280;65825;52.232;10.566;2024-01-27T10:51:16;102584.66;;;11.58;53.34
76853;BME280;65825;52.232;10.566;2024-01-27T10:53:46;102589.16;;;11.39;53.25
76853;BME280;65825;52.232;10.566;2024-01-27T10:56:14;102589.16;;;11.41;53.04
76853;BME280;65825;52.232;10.566;2024-01-27T10:58:40;102584.72;;;11.49;53.25
76853;BME280;65825;52.232;10.566;2024-01-27T11:01:11;102583.88;;;11.42;53.19
76853;BME280;65825;52.232;10.566;2024-01-27T11:03:40;102582.91;;;11.58;53.10
76853;BME280;65825;52.232;10.566;2024-01-27T11:06:07;102573.63;;;12.27;51.17
76853;BME280;65825;52.232;10.566;2024-01-27T11:08:35;102569.03;;;12.45;50.87
76853;BME280;65825;52.232;10.566;2024-01-27T11:11:02;102557.00;;;12.99;50.14
76853;BME280;65825;52.232;10.566;2024-01-27T11:13:29;102572.06;;;12.94;48.84
76853;BME280;65825;52.232;10.566;2024-01-27T11:15:55;102561.97;;;12.44;49.85
76853;BME280;65825;52.232;10.566;2024-01-27T11:18:21;102565.16;;;11.80;50.93
76853;BME280;65825;52.232;10.566;2024-01-27T11:20:47;102570.06;;;12.29;50.60
76853;BME280;65825;52.232;10.566;2024-01-27T11:23:13;102571.41;;;12.72;50.15
76853;BME280;65825;52.232;10.566;2024-01-27T11:25:41;102559.88;;;12.78;49.54
76853;BME280;65825;52.232;10.566;2024-01-27T11:28:15;102562.34;;;12.91;49.85
76853;BME280;65825;52.232;10.566;2024-01-27T11:30:48;102570.84;;;12.42;49.50
76853;BME280;65825;52.232;10.566;2024-01-27T11:33:13;102576.34;;;12.16;50.80
76853;BME280;65825;52.232;10.566;2024-01-27T11:35:39;102575.00;;;12.65;50.13
76853;BME280;65825;52.232;10.566;2024-01-27T11:38:04;102569.72;;;12.65;49.43
76853;BME280;65825;52.232;10.566;2024-01-27T11:40:29;102566.41;;;12.42;50.14
76853;BME280;65825;52.232;10.566;2024-01-27T11:45:21;102567.66;;;12.01;50.63
76853;BME280;65825;52.232;10.566;2024-01-27T11:47:46;102564.91;;;12.13;50.56
76853;BME280;65825;52.232;10.566;2024-01-27T11:50:11;102557.13;;;11.90;50.55
76853;BME280;65825;52.232;10.566;2024-01-27T11:52:37;102573.00;;;11.95;50.97
76853;BME280;65825;52.232;10.566;2024-01-27T11:55:03;102565.34;;;12.60;49.82
76853;BME280;65825;52.232;10.566;2024-01-27T11:57:29;102575.94;;;12.58;49.88
76853;BME280;65825;52.232;10.566;2024-01-27T11:59:54;102563.44;;;12.71;49.34
76853;BME280;65825;52.232;10.566;2024-01-27T12:02:19;102560.19;;;12.45;49.93
76853;BME280;65825;52.232;10.566;2024-01-27T12:04:45;102557.28;;;12.70;49.21
76853;BME280;65825;52.232;10.566;2024-01-27T12:07:11;102566.34;;;12.48;49.98
76853;BME280;65825;52.232;10.566;2024-01-27T12:09:37;102564.09;;;12.03;50.39
76853;BME280;65825;52.232;10.566;2024-01-27T12:12:03;102576.34;;;12.18;50.20
76853;BME280;65825;52.232;10.566;2024-01-27T12:14:46;102567.63;;;12.04;50.41
76853;BME280;65825;52.232;10.566;2024-01-27T12:17:12;102575.47;;;12.16;51.19
76853;BME280;65825;52.232;10.566;2024-01-27T12:19:38;102574.47;;;12.29;51.09
76853;BME280;65825;52.232;10.566;2024-01-27T12:22:04;102571.84;;;13.13;48.99
76853;BME280;65825;52.232;10.566;2024-01-27T12:24:29;102569.75;;;12.61;49.50
76853;BME280;65825;52.232;10.566;2024-01-27T12:26:55;102575.25;;;13.23;48.61
76853;BME280;65825;52.232;10.566;2024-01-27T12:29:24;102574.09;;;13.43;48.25
76853;BME280;65825;52.232;10.566;2024-01-27T12:31:49;102575.13;;;13.33;48.48
76853;BME280;65825;52.232;10.566;2024-01-27T12:34:15;102590.47;;;13.72;47.40
76853;BME280;65825;52.232;10.566;2024-01-27T12:36:43;102589.13;;;12.67;48.49
76853;BME280;65825;52.232;10.566;2024-01-27T12:39:09;102587.88;;;12.09;49.85
76853;BME280;65825;52.232;10.566;2024-01-27T12:41:34;102587.78;;;12.20;50.31
76853;BME280;65825;52.232;10.566;2024-01-27T12:44:00;102592.28;;;12.13;50.32